sensor_id;sensor_type;location;lat;lon;timestamp;pressure;altitude;pressure_sealevel;temperature;humidity
20455;BME280;10386;54.314;10.022;2023-10-09T00:02:09;102121.63;;;10.09;100.00
20455;BME280;10386;54.314;10.022;2023-10-09T00:04:39;102121.94;;;10.03;100.00
20455;BME280;10386;54.314;10.022;2023-10-09T00:07:09;102121.53;;;9.92;100.00
20455;BME280;10386;54.314;10.022;2023-10-09T00:09:39;102108.38;;;10.03;100.00
20455;BME280;10386;54.314;10.022;2023-10-09T00:12:20;102099.44;;;10.01;100.00
20455;BME280;10386;54.314;10.022;2023-10-09T00:14:52;102090.44;;;9.99;100.00
20455;BME280;10386;54.314;10.022;2023-10-09T00:17:23;102092.28;;;9.99;100.00
20455;BME280;10386;54.314;10.022;2023-10-09T00:19:51;102092.59;;;9.93;100.00
20455;BME280;10386;54.314;10.022;2023-10-09T00:22:19;102077.03;;;9.96;100.00
20455;BME280;10386;54.314;10.022;2023-10-09T00:24:57;102071.03;;;9.90;100.00
20455;BME280;10386;54.314;10.022;2023-10-09T00:27:39;102070.91;;;9.93;100.00
20455;BME280;10386;54.314;10.022;2023-10-09T00:30:15;102071.50;;;9.81;100.00
20455;BME280;10386;54.314;10.022;2023-10-09T00:32:48;102056.88;;;9.83;100.00
20455;BME280;10386;54.314;10.022;2023-10-09T00:35:20;102053.03;;;9.70;100.00
20455;BME280;10386;54.314;10.022;2023-10-09T00:38:06;102029.63;;;9.86;100.00
20455;BME280;10386;54.314;10.022;2023-10-09T00:40:55;102029.19;;;9.77;100.00
20455;BME280;10386;54.314;10.022;2023-10-09T00:43:34;102024.00;;;9.72;100.00
20455;BME280;10386;54.314;10.022;2023-10-09T00:46:05;102018.47;;;9.74;100.00
20455;BME280;10386;54.314;10.022;2023-10-09T00:48:43;101991.59;;;9.69;100.00
20455;BME280;10386;54.314;10.022;2023-10-09T00:51:17;101998.94;;;9.67;100.00
20455;BME280;10386;54.314;10.022;2023-10-09T00:53:48;101989.41;;;9.59;100.00
20455;BME280;10386;54.314;10.022;2023-10-09T00:56:21;101979.31;;;9.62;100.00
20455;BME280;10386;54.314;10.022;2023-10-09T00:58:56;101958.09;;;9.70;100.00
20455;BME280;10386;54.314;10.022;2023-10-09T01:01:33;101971.06;;;9.64;100.00
20455;BME280;10386;54.314;10.022;2023-10-09T01:04:23;101989.84;;;9.68;100.00
20455;BME280;10386;54.314;10.022;2023-10-09T01:06:54;101995.31;;;9.67;100.00
20455;BME280;10386;54.314;10.022;2023-10-09T01:09:40;101988.38;;;9.61;100.00
20455;BME280;10386;54.314;10.022;2023-10-09T01:12:10;101976.19;;;9.70;100.00
20455;BME280;10386;54.314;10.022;2023-10-09T01:14:44;102002.59;;;9.66;100.00
20455;BME280;10386;54.314;10.022;2023-10-09T01:17:11;102010.78;;;9.65;100.00
20455;BME280;10386;54.314;10.022;2023-10-09T01:19:45;102007.06;;;9.67;100.00
20455;BME280;10386;54.314;10.022;2023-10-09T01:22:14;101993.22;;;9.73;100.00
20455;BME280;10386;54.314;10.022;2023-10-09T01:24:42;101968.81;;;9.73;100.00
20455;BME280;10386;54.314;10.022;2023-10-09T01:27:10;101956.38;;;9.86;100.00
20455;BME280;10386;54.314;10.022;2023-10-09T01:29:44;101955.88;;;9.78;100.00
20455;BME280;10386;54.314;10.022;2023-10-09T01:32:13;102065.25;;;9.79;100.00
20455;BME280;10386;54.314;10.022;2023-10-09T01:34:44;102068.25;;;9.73;100.00
20455;BME280;10386;54.314;10.022;2023-10-09T01:37:21;102069.44;;;9.67;100.00
20455;BME280;10386;54.314;10.022;2023-10-09T01:39:57;102068.69;;;9.82;100.00
20455;BME280;10386;54.314;10.022;2023-10-09T01:42:47;102063.13;;;9.67;100.00
20455;BME280;10386;54.314;10.022;2023-10-09T01:45:14;102050.59;;;9.64;100.00
20455;BME280;10386;54.314;10.022;2023-10-09T01:47:46;102054.53;;;9.76;100.00
20455;BME280;10386;54.314;10.022;2023-10-09T01:50:21;102038.50;;;9.71;100.00
20455;BME280;10386;54.314;10.022;2023-10-09T01:52:52;102034.75;;;9.74;100.00
20455;BME280;10386;54.314;10.022;2023-10-09T01:55:19;102035.69;;;9.73;100.00
20455;BME280;10386;54.314;10.022;2023-10-09T01:58:07;102028.63;;;9.70;100.00
20455;BME280;10386;54.314;10.022;2023-10-09T02:00:50;102022.94;;;9.75;100.00
20455;BME280;10386;54.314;10.022;2023-10-09T02:03:23;102014.59;;;9.79;100.00
20455;BME280;10386;54.314;10.022;2023-10-09T02:05:52;102014.97;;;9.72;100.00
20455;BME280;10386;54.314;10.022;2023-10-09T02:08:47;102005.38;;;9.65;100.00
20455;BME280;10386;54.314;10.022;2023-10-09T02:11:16;102005.81;;;9.74;100.00
20455;BME280;10386;54.314;10.022;2023-10-09T02:14:05;101992.22;;;9.57;100.00
20455;BME280;10386;54.314;10.022;2023-10-09T02:16:47;101974.34;;;9.54;100.00
20455;BME280;10386;54.314;10.022;2023-10-09T02:19:30;101981.38;;;9.57;100.00
20455;BME280;10386;54.314;10.022;2023-10-09T02:22:03;101963.34;;;9.57;100.00
20455;BME280;10386;54.314;10.022;2023-10-09T02:24:43;101952.66;;;9.54;100.00
20455;BME280;10386;54.314;10.022;2023-10-09T02:27:17;101940.69;;;9.57;100.00
20455;BME280;10386;54.314;10.022;2023-10-09T02:30:04;101938.63;;;9.62;100.00
20455;BME280;10386;54.314;10.022;2023-10-09T02:32:42;101925.94;;;9.63;100.00
20455;BME280;10386;54.314;10.022;2023-10-09T02:35:13;101920.38;;;9.66;100.00
20455;BME280;10386;54.314;10.022;2023-10-09T02:38:05;101912.69;;;9.57;100.00
20455;BME280;10386;54.314;10.022;2023-10-09T02:40:34;101913.44;;;9.60;100.00
20455;BME280;10386;54.314;10.022;2023-10-09T02:43:08;101913.19;;;9.65;100.00
20455;BME280;10386;54.314;10.022;2023-10-09T02:45:44;101894.50;;;9.59;100.00
20455;BME280;10386;54.314;10.022;2023-10-09T02:48:17;101887.81;;;9.66;100.00
20455;BME280;10386;54.314;10.022;2023-10-09T02:50:51;101883.03;;;9.71;100.00
20455;BME280;10386;54.314;10.022;2023-10-09T02:53:18;101883.19;;;9.68;100.00
20455;BME280;10386;54.314;10.022;2023-10-09T02:55:45;101881.53;;;9.65;100.00
20455;BME280;10386;54.314;10.022;2023-10-09T02:58:35;101865.59;;;9.59;100.00
20455;BME280;10386;54.314;10.022;2023-10-09T03:01:03;101862.06;;;9.57;100.00
20455;BME280;10386;54.314;10.022;2023-10-09T03:03:35;101840.22;;;9.60;100.00
20455;BME280;10386;54.314;10.022;2023-10-09T03:06:02;101842.94;;;9.60;100.00
20455;BME280;10386;54.314;10.022;2023-10-09T03:08:38;101849.47;;;9.57;100.00
20455;BME280;10386;54.314;10.022;2023-10-09T03:11:05;101847.72;;;9.56;100.00
20455;BME280;10386;54.314;10.022;2023-10-09T03:13:32;101851.38;;;9.55;100.00
20455;BME280;10386;54.314;10.022;2023-10-09T03:15:59;101833.13;;;9.75;100.00
20455;BME280;10386;54.314;10.022;2023-10-09T03:18:30;101842.47;;;9.53;100.00
20455;BME280;10386;54.314;10.022;2023-10-09T03:20:56;101828.50;;;9.60;100.00
20455;BME280;10386;54.314;10.022;2023-10-09T03:23:23;101818.84;;;9.55;100.00
20455;BME280;10386;54.314;10.022;2023-10-09T03:25:50;101811.91;;;9.66;100.00
20455;BME280;10386;54.314;10.022;2023-10-09T03:28:17;101791.13;;;9.66;100.00
20455;BME280;10386;54.314;10.022;2023-10-09T03:30:44;101796.13;;;9.57;100.00
20455;BME280;10386;54.314;10.022;2023-10-09T03:33:14;101798.59;;;9.61;100.00
20455;BME280;10386;54.314;10.022;2023-10-09T03:35:41;101782.31;;;9.78;100.00
20455;BME280;10386;54.314;10.022;2023-10-09T03:38:08;101785.06;;;9.61;100.00
20455;BME280;10386;54.314;10.022;2023-10-09T03:40:45;101784.09;;;9.62;100.00
20455;BME280;10386;54.314;10.022;2023-10-09T03:43:15;101776.50;;;9.86;100.00
20455;BME280;10386;54.314;10.022;2023-10-09T03:45:42;101756.66;;;9.68;100.00
20455;BME280;10386;54.314;10.022;2023-10-09T03:48:19;101750.75;;;9.77;100.00
20455;BME280;10386;54.314;10.022;2023-10-09T03:50:53;101747.72;;;9.66;100.00
20455;BME280;10386;54.314;10.022;2023-10-09T03:53:36;101740.13;;;9.73;100.00
20455;BME280;10386;54.314;10.022;2023-10-09T03:56:04;101734.72;;;9.73;100.00
20455;BME280;10386;54.314;10.022;2023-10-09T03:58:43;101735.75;;;9.70;100.00
20455;BME280;10386;54.314;10.022;2023-10-09T04:01:17;101741.97;;;9.72;100.00
20455;BME280;10386;54.314;10.022;2023-10-09T04:03:57;101737.84;;;9.65;100.00
20455;BME280;10386;54.314;10.022;2023-10-09T04:06:29;101734.88;;;9.70;100.00
20455;BME280;10386;54.314;10.022;2023-10-09T04:11:26;101727.38;;;9.75;100.00
20455;BME280;10386;54.314;10.022;2023-10-09T04:13:53;101723.16;;;9.69;100.00
20455;BME280;10386;54.314;10.022;2023-10-09T04:16:22;101717.47;;;9.74;100.00
20455;BME280;10386;54.314;10.022;2023-10-09T04:19:01;101705.84;;;9.72;100.00
20455;BME280;10386;54.314;10.022;2023-10-09T04:21:41;101696.69;;;9.74;100.00
20455;BME280;10386;54.314;10.022;2023-10-09T04:24:08;101676.34;;;9.98;100.00
20455;BME280;10386;54.314;10.022;2023-10-09T04:26:44;101678.78;;;9.87;100.00
20455;BME280;10386;54.314;10.022;2023-10-09T04:29:15;101666.28;;;9.85;100.00
20455;BME280;10386;54.314;10.022;2023-10-09T04:31:56;101661.19;;;9.94;100.00
20455;BME280;10386;54.314;10.022;2023-10-09T04:34:27;101648.59;;;9.93;100.00
20455;BME280;10386;54.314;10.022;2023-10-09T04:36:57;101637.75;;;9.93;100.00
20455;BME280;10386;54.314;10.022;2023-10-09T04:39:28;101625.75;;;9.97;100.00
20455;BME280;10386;54.314;10.022;2023-10-09T04:41:58;101625.44;;;10.03;100.00
20455;BME280;10386;54.314;10.022;2023-10-09T04:44:45;101474.66;;;9.99;100.00
20455;BME280;10386;54.314;10.022;2023-10-09T04:47:34;101464.75;;;9.98;100.00
20455;BME280;10386;54.314;10.022;2023-10-09T04:50:25;101460.78;;;9.90;100.00
20455;BME280;10386;54.314;10.022;2023-10-09T04:52:57;101441.09;;;10.02;100.00
20455;BME280;10386;54.314;10.022;2023-10-09T04:55:40;101418.91;;;10.09;100.00
20455;BME280;10386;54.314;10.022;2023-10-09T04:58:10;101414.97;;;9.99;100.00
20455;BME280;10386;54.314;10.022;2023-10-09T05:00:51;101403.97;;;10.02;100.00
20455;BME280;10386;54.314;10.022;2023-10-09T05:03:24;101386.53;;;10.06;100.00
20455;BME280;10386;54.314;10.022;2023-10-09T05:05:56;101397.69;;;10.02;100.00
20455;BME280;10386;54.314;10.022;2023-10-09T05:08:26;101394.88;;;10.03;100.00
20455;BME280;10386;54.314;10.022;2023-10-09T05:11:01;101402.75;;;10.08;100.00
20455;BME280;10386;54.314;10.022;2023-10-09T05:13:29;101400.88;;;10.08;100.00
20455;BME280;10386;54.314;10.022;2023-10-09T05:16:16;101408.44;;;10.03;100.00
20455;BME280;10386;54.314;10.022;2023-10-09T05:19:04;101389.00;;;9.95;100.00
20455;BME280;10386;54.314;10.022;2023-10-09T05:21:36;101360.91;;;10.26;100.00
20455;BME280;10386;54.314;10.022;2023-10-09T05:24:12;101348.91;;;10.16;100.00
20455;BME280;10386;54.314;10.022;2023-10-09T05:26:43;101352.28;;;10.19;100.00
20455;BME280;10386;54.314;10.022;2023-10-09T05:29:18;101350.72;;;10.15;100.00
20455;BME280;10386;54.314;10.022;2023-10-09T05:32:05;101347.78;;;10.04;100.00
20455;BME280;10386;54.314;10.022;2023-10-09T05:34:33;101359.72;;;10.02;100.00
20455;BME280;10386;54.314;10.022;2023-10-09T05:37:19;101347.94;;;10.17;100.00
20455;BME280;10386;54.314;10.022;2023-10-09T05:39:52;101354.00;;;10.06;100.00
20455;BME280;10386;54.314;10.022;2023-10-09T05:42:35;101357.00;;;10.02;100.00
20455;BME280;10386;54.314;10.022;2023-10-09T05:45:11;101360.06;;;10.25;100.00
20455;BME280;10386;54.314;10.022;2023-10-09T05:47:49;101162.94;;;10.10;100.00
20455;BME280;10386;54.314;10.022;2023-10-09T05:50:21;101165.28;;;10.02;100.00
20455;BME280;10386;54.314;10.022;2023-10-09T05:52:58;101152.38;;;10.20;100.00
20455;BME280;10386;54.314;10.022;2023-10-09T05:55:28;101149.19;;;10.27;100.00
20455;BME280;10386;54.314;10.022;2023-10-09T05:58:04;101146.56;;;10.26;100.00
20455;BME280;10386;54.314;10.022;2023-10-09T06:01:00;101153.16;;;10.22;100.00
20455;BME280;10386;54.314;10.022;2023-10-09T06:03:46;101149.59;;;10.21;100.00
20455;BME280;10386;54.314;10.022;2023-10-09T06:06:16;101148.28;;;10.27;100.00
20455;BME280;10386;54.314;10.022;2023-10-09T06:09:05;101149.75;;;10.32;100.00
20455;BME280;10386;54.314;10.022;2023-10-09T06:11:56;101150.44;;;10.22;100.00
20455;BME280;10386;54.314;10.022;2023-10-09T06:14:43;101149.59;;;10.21;100.00
20455;BME280;10386;54.314;10.022;2023-10-09T06:17:16;101148.97;;;10.30;100.00
20455;BME280;10386;54.314;10.022;2023-10-09T06:19:54;101153.72;;;10.27;100.00
20455;BME280;10386;54.314;10.022;2023-10-09T06:22:47;101158.88;;;10.31;100.00
20455;BME280;10386;54.314;10.022;2023-10-09T06:25:23;101150.81;;;10.30;100.00
20455;BME280;10386;54.314;10.022;2023-10-09T06:27:59;101148.09;;;10.30;100.00
20455;BME280;10386;54.314;10.022;2023-10-09T06:30:26;101149.38;;;10.24;100.00
20455;BME280;10386;54.314;10.022;2023-10-09T06:32:54;101149.59;;;10.21;100.00
20455;BME280;10386;54.314;10.022;2023-10-09T06:35:21;101152.06;;;10.38;100.00
20455;BME280;10386;54.314;10.022;2023-10-09T06:37:49;101146.63;;;10.38;100.00
20455;BME280;10386;54.314;10.022;2023-10-09T06:40:29;101149.81;;;10.45;100.00
20455;BME280;10386;54.314;10.022;2023-10-09T06:43:16;101150.97;;;10.41;100.00
20455;BME280;10386;54.314;10.022;2023-10-09T06:45:44;101147.28;;;10.42;100.00
20455;BME280;10386;54.314;10.022;2023-10-09T06:48:12;101152.16;;;10.37;100.00
20455;BME280;10386;54.314;10.022;2023-10-09T06:51:08;101159.81;;;10.44;100.00
20455;BME280;10386;54.314;10.022;2023-10-09T06:53:55;101169.41;;;10.36;100.00
20455;BME280;10386;54.314;10.022;2023-10-09T06:56:26;101161.75;;;10.42;100.00
20455;BME280;10386;54.314;10.022;2023-10-09T07:01:25;101161.44;;;10.47;100.00
20455;BME280;10386;54.314;10.022;2023-10-09T07:04:06;101161.56;;;10.45;100.00
20455;BME280;10386;54.314;10.022;2023-10-09T07:06:47;101160.38;;;10.49;100.00
20455;BME280;10386;54.314;10.022;2023-10-09T07:09:15;101171.53;;;10.45;100.00
20455;BME280;10386;54.314;10.022;2023-10-09T07:11:50;101162.69;;;10.55;100.00
20455;BME280;10386;54.314;10.022;2023-10-09T07:14:22;101168.88;;;10.57;100.00
20455;BME280;10386;54.314;10.022;2023-10-09T07:17:00;101171.22;;;10.49;100.00
20455;BME280;10386;54.314;10.022;2023-10-09T07:19:31;101160.25;;;10.65;100.00
20455;BME280;10386;54.314;10.022;2023-10-09T07:22:01;101164.31;;;10.58;100.00
20455;BME280;10386;54.314;10.022;2023-10-09T07:24:31;101176.34;;;10.54;100.00
20455;BME280;10386;54.314;10.022;2023-10-09T07:27:10;101183.84;;;10.50;100.00
20455;BME280;10386;54.314;10.022;2023-10-09T07:29:40;101193.16;;;10.46;100.00
20455;BME280;10386;54.314;10.022;2023-10-09T07:32:18;101193.16;;;10.46;100.00
20455;BME280;10386;54.314;10.022;2023-10-09T07:34:49;101198.06;;;10.54;100.00
20455;BME280;10386;54.314;10.022;2023-10-09T07:37:23;101199.50;;;10.59;100.00
20455;BME280;10386;54.314;10.022;2023-10-09T07:39:51;101200.13;;;10.50;100.00
20455;BME280;10386;54.314;10.022;2023-10-09T07:42:25;101215.53;;;10.50;100.00
20455;BME280;10386;54.314;10.022;2023-10-09T07:45:21;101203.31;;;10.43;100.00
20455;BME280;10386;54.314;10.022;2023-10-09T07:47:49;101210.88;;;10.66;100.00
20455;BME280;10386;54.314;10.022;2023-10-09T07:50:38;101213.06;;;10.73;100.00
20455;BME280;10386;54.314;10.022;2023-10-09T07:53:08;101219.78;;;10.68;100.00
20455;BME280;10386;54.314;10.022;2023-10-09T07:55:53;101227.59;;;10.72;100.00
20455;BME280;10386;54.314;10.022;2023-10-09T07:58:22;101224.81;;;10.74;100.00
20455;BME280;10386;54.314;10.022;2023-10-09T08:00:57;101229.25;;;10.75;100.00
20455;BME280;10386;54.314;10.022;2023-10-09T08:03:36;101234.56;;;10.76;100.00
20455;BME280;10386;54.314;10.022;2023-10-09T08:06:04;101222.41;;;10.96;100.00
20455;BME280;10386;54.314;10.022;2023-10-09T08:08:53;101225.41;;;10.91;100.00
20455;BME280;10386;54.314;10.022;2023-10-09T08:11:30;101225.97;;;10.96;100.00
20455;BME280;10386;54.314;10.022;2023-10-09T08:14:13;101235.47;;;11.03;100.00
20455;BME280;10386;54.314;10.022;2023-10-09T08:17:12;101231.06;;;11.14;100.00
20455;BME280;10386;54.314;10.022;2023-10-09T08:19:50;101241.66;;;11.19;100.00
20455;BME280;10386;54.314;10.022;2023-10-09T08:22:38;101251.91;;;11.28;100.00
20455;BME280;10386;54.314;10.022;2023-10-09T08:25:11;101290.59;;;11.31;100.00
20455;BME280;10386;54.314;10.022;2023-10-09T08:28:02;101349.81;;;11.26;100.00
20455;BME280;10386;54.314;10.022;2023-10-09T08:30:41;101366.16;;;11.12;100.00
20455;BME280;10386;54.314;10.022;2023-10-09T08:33:19;101362.28;;;11.16;100.00
20455;BME280;10386;54.314;10.022;2023-10-09T08:36:26;101362.59;;;11.12;100.00
20455;BME280;10386;54.314;10.022;2023-10-09T08:38:58;101359.06;;;11.24;100.00
20455;BME280;10386;54.314;10.022;2023-10-09T08:41:28;101366.84;;;11.16;100.00
20455;BME280;10386;54.314;10.022;2023-10-09T08:43:57;101369.78;;;11.13;100.00
20455;BME280;10386;54.314;10.022;2023-10-09T08:46:27;101373.63;;;11.23;100.00
20455;BME280;10386;54.314;10.022;2023-10-09T08:48:57;101379.88;;;11.11;100.00
20455;BME280;10386;54.314;10.022;2023-10-09T08:51:26;101378.31;;;11.07;100.00
20455;BME280;10386;54.314;10.022;2023-10-09T08:53:54;101372.88;;;11.21;100.00
20455;BME280;10386;54.314;10.022;2023-10-09T08:56:22;101367.72;;;11.16;100.00
20455;BME280;10386;54.314;10.022;2023-10-09T08:58:54;101369.97;;;11.10;100.00
20455;BME280;10386;54.314;10.022;2023-10-09T09:01:21;101366.84;;;11.16;100.00
20455;BME280;10386;54.314;10.022;2023-10-09T09:03:49;101363.06;;;11.04;100.00
20455;BME280;10386;54.314;10.022;2023-10-09T09:06:20;101365.59;;;11.07;100.00
20455;BME280;10386;54.314;10.022;2023-10-09T09:08:47;101368.47;;;11.18;100.00
20455;BME280;10386;54.314;10.022;2023-10-09T09:11:17;101363.16;;;11.17;100.00
20455;BME280;10386;54.314;10.022;2023-10-09T09:16:35;101365.00;;;11.16;100.00
20455;BME280;10386;54.314;10.022;2023-10-09T09:21:37;101370.72;;;11.26;100.00
20455;BME280;10386;54.314;10.022;2023-10-09T09:24:06;101367.22;;;11.24;100.00
20455;BME280;10386;54.314;10.022;2023-10-09T09:26:43;101366.38;;;11.09;100.00
20455;BME280;10386;54.314;10.022;2023-10-09T09:29:13;101367.84;;;11.15;100.00
20455;BME280;10386;54.314;10.022;2023-10-09T09:31:55;101367.34;;;11.08;100.00
20455;BME280;10386;54.314;10.022;2023-10-09T09:34:24;101364.22;;;11.14;100.00
20455;BME280;10386;54.314;10.022;2023-10-09T09:36:58;101360.03;;;11.23;100.00
20455;BME280;10386;54.314;10.022;2023-10-09T09:39:26;101367.16;;;11.11;100.00
20455;BME280;10386;54.314;10.022;2023-10-09T09:42:15;101354.25;;;11.15;100.00
20455;BME280;10386;54.314;10.022;2023-10-09T09:44:52;101353.72;;;11.22;100.00
20455;BME280;10386;54.314;10.022;2023-10-09T09:47:19;101342.41;;;11.42;100.00
20455;BME280;10386;54.314;10.022;2023-10-09T09:49:55;101334.56;;;11.38;100.00
20455;BME280;10386;54.314;10.022;2023-10-09T09:52:38;101329.81;;;11.27;100.00
20455;BME280;10386;54.314;10.022;2023-10-09T09:55:10;101322.34;;;11.31;100.00
20455;BME280;10386;54.314;10.022;2023-10-09T09:57:49;101312.28;;;11.45;100.00
20455;BME280;10386;54.314;10.022;2023-10-09T10:00:25;101318.69;;;11.44;100.00
20455;BME280;10386;54.314;10.022;2023-10-09T10:03:01;101300.34;;;11.48;100.00
20455;BME280;10386;54.314;10.022;2023-10-09T10:05:33;101285.78;;;11.49;100.00
20455;BME280;10386;54.314;10.022;2023-10-09T10:08:01;101275.28;;;11.57;100.00
20455;BME280;10386;54.314;10.022;2023-10-09T10:10:35;101274.78;;;11.77;100.00
20455;BME280;10386;54.314;10.022;2023-10-09T10:13:05;101263.78;;;11.66;100.00
20455;BME280;10386;54.314;10.022;2023-10-09T10:16:00;101259.56;;;11.87;100.00
20455;BME280;10386;54.314;10.022;2023-10-09T10:18:58;101255.13;;;11.98;100.00
20455;BME280;10386;54.314;10.022;2023-10-09T10:21:34;101254.59;;;12.06;100.00
20455;BME280;10386;54.314;10.022;2023-10-09T10:27:20;101260.91;;;11.94;100.00
20455;BME280;10386;54.314;10.022;2023-10-09T10:32:55;101269.84;;;11.96;100.00
20455;BME280;10386;54.314;10.022;2023-10-09T10:35:25;101273.59;;;11.81;100.00
20455;BME280;10386;54.314;10.022;2023-10-09T10:38:28;101277.06;;;11.83;100.00
20455;BME280;10386;54.314;10.022;2023-10-09T10:41:27;101286.56;;;11.77;100.00
20455;BME280;10386;54.314;10.022;2023-10-09T10:44:00;101294.38;;;11.82;100.00
20455;BME280;10386;54.314;10.022;2023-10-09T10:46:41;101298.72;;;11.72;100.00
20455;BME280;10386;54.314;10.022;2023-10-09T10:49:11;101296.19;;;11.69;100.00
20455;BME280;10386;54.314;10.022;2023-10-09T10:51:42;101292.50;;;11.70;100.00
20455;BME280;10386;54.314;10.022;2023-10-09T10:54:22;101280.22;;;11.77;100.00
20455;BME280;10386;54.314;10.022;2023-10-09T10:59:58;101268.91;;;11.83;100.00
20455;BME280;10386;54.314;10.022;2023-10-09T11:02:44;101263.06;;;12.01;100.00
20455;BME280;10386;54.314;10.022;2023-10-09T11:05:15;101259.16;;;11.93;100.00
20455;BME280;10386;54.314;10.022;2023-10-09T11:07:57;101260.13;;;11.79;100.00
20455;BME280;10386;54.314;10.022;2023-10-09T11:10:24;101252.38;;;11.86;100.00
20455;BME280;10386;54.314;10.022;2023-10-09T11:12:56;101243.59;;;11.95;100.00
20455;BME280;10386;54.314;10.022;2023-10-09T11:15:36;101236.84;;;12.00;100.00
20455;BME280;10386;54.314;10.022;2023-10-09T11:18:22;101239.00;;;11.83;100.00
20455;BME280;10386;54.314;10.022;2023-10-09T11:20:57;101227.50;;;11.92;100.00
20455;BME280;10386;54.314;10.022;2023-10-09T11:23:31;101218.34;;;12.05;100.00
20455;BME280;10386;54.314;10.022;2023-10-09T11:26:03;101215.81;;;12.02;100.00
20455;BME280;10386;54.314;10.022;2023-10-09T11:29:12;101215.28;;;12.10;100.00
20455;BME280;10386;54.314;10.022;2023-10-09T11:32:21;101210.41;;;12.15;100.00
20455;BME280;10386;54.314;10.022;2023-10-09T11:35:12;101208.44;;;12.17;100.00
20455;BME280;10386;54.314;10.022;2023-10-09T11:38:01;101087.03;;;12.14;100.00
20455;BME280;10386;54.314;10.022;2023-10-09T11:40:47;101080.06;;;12.23;100.00
20455;BME280;10386;54.314;10.022;2023-10-09T11:43:20;101083.44;;;12.14;100.00
20455;BME280;10386;54.314;10.022;2023-10-09T11:46:11;101088.13;;;12.12;100.00
20455;BME280;10386;54.314;10.022;2023-10-09T11:48:38;101075.91;;;12.17;100.00
20455;BME280;10386;54.314;10.022;2023-10-09T11:51:31;101077.63;;;12.31;100.00
20455;BME280;10386;54.314;10.022;2023-10-09T11:53:59;101076.34;;;12.24;100.00
20455;BME280;10386;54.314;10.022;2023-10-09T11:56:26;101066.66;;;12.20;100.00
20455;BME280;10386;54.314;10.022;2023-10-09T11:58:54;101063.09;;;12.42;100.00
20455;BME280;10386;54.314;10.022;2023-10-09T12:01:25;101063.47;;;12.38;100.00
20455;BME280;10386;54.314;10.022;2023-10-09T12:03:53;101058.91;;;12.26;100.00
20455;BME280;10386;54.314;10.022;2023-10-09T12:06:21;101072.56;;;12.14;100.00
20455;BME280;10386;54.314;10.022;2023-10-09T12:08:50;101070.69;;;12.14;100.00
20455;BME280;10386;54.314;10.022;2023-10-09T12:11:17;101072.22;;;12.18;100.00
20455;BME280;10386;54.314;10.022;2023-10-09T12:13:56;101064.09;;;12.29;100.00
20455;BME280;10386;54.314;10.022;2023-10-09T12:16:24;101056.41;;;12.23;100.00
20455;BME280;10386;54.314;10.022;2023-10-09T12:18:55;101050.28;;;12.32;100.00
20455;BME280;10386;54.314;10.022;2023-10-09T12:21:23;101042.34;;;12.29;100.00
20455;BME280;10386;54.314;10.022;2023-10-09T12:23:50;101030.47;;;12.30;100.00
20455;BME280;10386;54.314;10.022;2023-10-09T12:26:17;101022.09;;;12.33;100.00
20455;BME280;10386;54.314;10.022;2023-10-09T12:28:44;101005.81;;;12.44;100.00
20455;BME280;10386;54.314;10.022;2023-10-09T12:31:14;101002.72;;;12.48;100.00
20455;BME280;10386;54.314;10.022;2023-10-09T12:33:42;100991.88;;;12.59;100.00
20455;BME280;10386;54.314;10.022;2023-10-09T12:36:13;100986.69;;;12.67;100.00
20455;BME280;10386;54.314;10.022;2023-10-09T12:38:47;100990.88;;;12.60;100.00
20455;BME280;10386;54.314;10.022;2023-10-09T12:41:19;100999.28;;;12.57;100.00
20455;BME280;10386;54.314;10.022;2023-10-09T12:43:54;100989.25;;;12.81;100.00
20455;BME280;10386;54.314;10.022;2023-10-09T12:46:21;100988.25;;;12.82;100.00
20455;BME280;10386;54.314;10.022;2023-10-09T12:48:52;100987.28;;;12.83;100.00
20455;BME280;10386;54.314;10.022;2023-10-09T12:51:23;100979.94;;;12.84;100.00
20455;BME280;10386;54.314;10.022;2023-10-09T12:53:57;100983.41;;;12.86;100.00
20455;BME280;10386;54.314;10.022;2023-10-09T12:56:25;100976.78;;;12.66;100.00
20455;BME280;10386;54.314;10.022;2023-10-09T12:59:05;100980.31;;;12.79;100.00
20455;BME280;10386;54.314;10.022;2023-10-09T13:01:33;100978.84;;;12.86;100.00
20455;BME280;10386;54.314;10.022;2023-10-09T13:04:14;100984.38;;;12.74;100.00
20455;BME280;10386;54.314;10.022;2023-10-09T13:06:45;100982.41;;;12.76;100.00
20455;BME280;10386;54.314;10.022;2023-10-09T13:09:14;100978.97;;;12.85;100.00
20455;BME280;10386;54.314;10.022;2023-10-09T13:11:42;100979.72;;;12.87;100.00
20455;BME280;10386;54.314;10.022;2023-10-09T13:14:10;100974.41;;;12.85;100.00
20455;BME280;10386;54.314;10.022;2023-10-09T13:16:44;100975.00;;;12.89;100.00
20455;BME280;10386;54.314;10.022;2023-10-09T13:19:12;100966.06;;;12.76;100.00
20455;BME280;10386;54.314;10.022;2023-10-09T13:21:39;100969.13;;;12.71;100.00
20455;BME280;10386;54.314;10.022;2023-10-09T13:24:07;100950.84;;;12.84;100.00
20455;BME280;10386;54.314;10.022;2023-10-09T13:26:41;100953.81;;;12.81;100.00
20455;BME280;10386;54.314;10.022;2023-10-09T13:29:10;100949.72;;;12.87;100.00
20455;BME280;10386;54.314;10.022;2023-10-09T13:31:39;100956.81;;;12.89;100.00
20455;BME280;10386;54.314;10.022;2023-10-09T13:34:13;100958.09;;;12.96;100.00